sensor_id;sensor_type;location;lat;lon;timestamp;temperature;humidity
22633;DHT22;11483;55.828;37.488;2022-09-01T00:01:22;11.50;99.90
22633;DHT22;11483;55.828;37.488;2022-09-01T00:03:52;11.50;99.90
22633;DHT22;11483;55.828;37.488;2022-09-01T00:06:21;11.50;99.90
22633;DHT22;11483;55.828;37.488;2022-09-01T00:08:53;11.50;99.90
22633;DHT22;11483;55.828;37.488;2022-09-01T00:11:21;11.40;99.90
22633;DHT22;11483;55.828;37.488;2022-09-01T00:13:48;11.40;99.90
22633;DHT22;11483;55.828;37.488;2022-09-01T00:16:15;11.30;99.90
22633;DHT22;11483;55.828;37.488;2022-09-01T00:18:43;11.30;99.90
22633;DHT22;11483;55.828;37.488;2022-09-01T00:21:16;11.30;99.90
22633;DHT22;11483;55.828;37.488;2022-09-01T00:23:42;11.30;99.90
22633;DHT22;11483;55.828;37.488;2022-09-01T00:26:08;11.30;99.90
22633;DHT22;11483;55.828;37.488;2022-09-01T00:28:36;11.30;99.90
22633;DHT22;11483;55.828;37.488;2022-09-01T00:31:02;11.30;99.90
22633;DHT22;11483;55.828;37.488;2022-09-01T00:33:29;11.30;99.90
22633;DHT22;11483;55.828;37.488;2022-09-01T00:35:55;11.20;99.90
22633;DHT22;11483;55.828;37.488;2022-09-01T00:38:21;11.20;99.90
22633;DHT22;11483;55.828;37.488;2022-09-01T00:40:46;11.30;99.90
22633;DHT22;11483;55.828;37.488;2022-09-01T00:46:13;11.30;99.90
22633;DHT22;11483;55.828;37.488;2022-09-01T00:48:40;11.40;99.90
22633;DHT22;11483;55.828;37.488;2022-09-01T00:51:08;11.50;99.90
22633;DHT22;11483;55.828;37.488;2022-09-01T00:53:35;11.50;99.90
22633;DHT22;11483;55.828;37.488;2022-09-01T00:56:02;11.50;99.90
22633;DHT22;11483;55.828;37.488;2022-09-01T00:58:29;11.40;99.90
22633;DHT22;11483;55.828;37.488;2022-09-01T01:00:55;11.30;99.90
22633;DHT22;11483;55.828;37.488;2022-09-01T01:03:21;11.30;99.90
22633;DHT22;11483;55.828;37.488;2022-09-01T01:05:54;11.40;99.90
22633;DHT22;11483;55.828;37.488;2022-09-01T01:08:30;11.40;99.90
22633;DHT22;11483;55.828;37.488;2022-09-01T01:11:04;11.40;99.90
22633;DHT22;11483;55.828;37.488;2022-09-01T01:13:30;11.20;99.90
22633;DHT22;11483;55.828;37.488;2022-09-01T01:16:02;11.20;99.90
22633;DHT22;11483;55.828;37.488;2022-09-01T01:18:28;11.20;99.90
22633;DHT22;11483;55.828;37.488;2022-09-01T01:21:04;11.10;99.90
22633;DHT22;11483;55.828;37.488;2022-09-01T01:23:56;10.50;99.90
22633;DHT22;11483;55.828;37.488;2022-09-01T01:26:26;10.90;99.90
22633;DHT22;11483;55.828;37.488;2022-09-01T01:28:53;10.90;99.90
22633;DHT22;11483;55.828;37.488;2022-09-01T01:31:20;10.80;99.90
22633;DHT22;11483;55.828;37.488;2022-09-01T01:33:53;10.80;99.90
22633;DHT22;11483;55.828;37.488;2022-09-01T01:36:26;10.80;99.90
22633;DHT22;11483;55.828;37.488;2022-09-01T01:38:59;10.80;99.90
22633;DHT22;11483;55.828;37.488;2022-09-01T01:41:32;10.90;99.90
22633;DHT22;11483;55.828;37.488;2022-09-01T01:44:00;10.90;99.90
22633;DHT22;11483;55.828;37.488;2022-09-01T01:46:33;10.90;99.90
22633;DHT22;11483;55.828;37.488;2022-09-01T01:49:00;11.00;99.90
22633;DHT22;11483;55.828;37.488;2022-09-01T01:51:27;10.90;99.90
22633;DHT22;11483;55.828;37.488;2022-09-01T01:53:55;10.90;99.90
22633;DHT22;11483;55.828;37.488;2022-09-01T01:56:22;10.90;99.90
22633;DHT22;11483;55.828;37.488;2022-09-01T01:58:54;10.90;99.90
22633;DHT22;11483;55.828;37.488;2022-09-01T02:01:25;10.90;99.90
22633;DHT22;11483;55.828;37.488;2022-09-01T02:03:54;10.80;99.90
22633;DHT22;11483;55.828;37.488;2022-09-01T02:06:22;10.80;99.90
22633;DHT22;11483;55.828;37.488;2022-09-01T02:08:54;10.80;99.90
22633;DHT22;11483;55.828;37.488;2022-09-01T02:11:26;10.70;99.90
22633;DHT22;11483;55.828;37.488;2022-09-01T02:13:52;10.70;99.90
22633;DHT22;11483;55.828;37.488;2022-09-01T02:16:23;10.70;99.90
22633;DHT22;11483;55.828;37.488;2022-09-01T02:18:49;10.60;99.90
22633;DHT22;11483;55.828;37.488;2022-09-01T02:21:18;10.60;99.90
22633;DHT22;11483;55.828;37.488;2022-09-01T02:23:51;10.50;99.90
22633;DHT22;11483;55.828;37.488;2022-09-01T02:26:25;10.50;99.90
22633;DHT22;11483;55.828;37.488;2022-09-01T02:28:57;10.50;99.90
22633;DHT22;11483;55.828;37.488;2022-09-01T02:31:27;10.50;99.90
22633;DHT22;11483;55.828;37.488;2022-09-01T02:33:52;10.60;99.90
22633;DHT22;11483;55.828;37.488;2022-09-01T02:36:20;10.60;99.90
22633;DHT22;11483;55.828;37.488;2022-09-01T02:38:47;10.60;99.90
22633;DHT22;11483;55.828;37.488;2022-09-01T02:41:14;10.60;99.90
22633;DHT22;11483;55.828;37.488;2022-09-01T02:43:45;10.70;99.90
22633;DHT22;11483;55.828;37.488;2022-09-01T02:46:12;10.70;99.90
22633;DHT22;11483;55.828;37.488;2022-09-01T02:48:41;10.70;99.90
22633;DHT22;11483;55.828;37.488;2022-09-01T02:51:17;10.70;99.90
22633;DHT22;11483;55.828;37.488;2022-09-01T02:53:44;10.60;99.90
22633;DHT22;11483;55.828;37.488;2022-09-01T02:56:13;10.60;99.90
22633;DHT22;11483;55.828;37.488;2022-09-01T02:58:41;10.60;99.90
22633;DHT22;11483;55.828;37.488;2022-09-01T03:01:19;10.50;99.90
22633;DHT22;11483;55.828;37.488;2022-09-01T03:03:47;10.40;99.90
22633;DHT22;11483;55.828;37.488;2022-09-01T03:06:14;10.40;99.90
22633;DHT22;11483;55.828;37.488;2022-09-01T03:08:44;10.50;99.90
22633;DHT22;11483;55.828;37.488;2022-09-01T03:11:10;10.60;99.90
22633;DHT22;11483;55.828;37.488;2022-09-01T03:13:37;10.60;99.90
22633;DHT22;11483;55.828;37.488;2022-09-01T03:16:08;10.70;99.90
22633;DHT22;11483;55.828;37.488;2022-09-01T03:18:34;10.70;99.90
22633;DHT22;11483;55.828;37.488;2022-09-01T03:21:00;10.70;99.90
22633;DHT22;11483;55.828;37.488;2022-09-01T03:23:27;10.70;99.90
22633;DHT22;11483;55.828;37.488;2022-09-01T03:25:54;10.80;99.90
22633;DHT22;11483;55.828;37.488;2022-09-01T03:28:20;10.90;99.90
22633;DHT22;11483;55.828;37.488;2022-09-01T03:30:49;10.80;99.90
22633;DHT22;11483;55.828;37.488;2022-09-01T03:33:17;10.90;99.90
22633;DHT22;11483;55.828;37.488;2022-09-01T03:35:43;10.90;99.90
22633;DHT22;11483;55.828;37.488;2022-09-01T03:38:10;10.90;99.90
22633;DHT22;11483;55.828;37.488;2022-09-01T03:40:38;11.00;99.90
22633;DHT22;11483;55.828;37.488;2022-09-01T03:43:06;11.00;99.90
22633;DHT22;11483;55.828;37.488;2022-09-01T03:45:36;11.10;99.90
22633;DHT22;11483;55.828;37.488;2022-09-01T03:48:04;11.10;99.90
22633;DHT22;11483;55.828;37.488;2022-09-01T03:50:35;11.20;99.90
22633;DHT22;11483;55.828;37.488;2022-09-01T03:53:06;11.20;99.90
22633;DHT22;11483;55.828;37.488;2022-09-01T03:55:34;11.20;99.90
22633;DHT22;11483;55.828;37.488;2022-09-01T03:58:06;11.20;99.90
22633;DHT22;11483;55.828;37.488;2022-09-01T04:00:40;11.30;99.90
22633;DHT22;11483;55.828;37.488;2022-09-01T04:03:09;11.30;99.90
22633;DHT22;11483;55.828;37.488;2022-09-01T04:05:37;11.30;99.90
22633;DHT22;11483;55.828;37.488;2022-09-01T04:08:07;11.30;99.90
22633;DHT22;11483;55.828;37.488;2022-09-01T04:10:41;11.30;99.90
22633;DHT22;11483;55.828;37.488;2022-09-01T04:13:10;11.30;99.90
22633;DHT22;11483;55.828;37.488;2022-09-01T04:15:37;11.30;99.90
22633;DHT22;11483;55.828;37.488;2022-09-01T04:18:03;11.50;99.90
22633;DHT22;11483;55.828;37.488;2022-09-01T04:20:50;11.50;99.90
22633;DHT22;11483;55.828;37.488;2022-09-01T04:23:28;11.40;99.90
22633;DHT22;11483;55.828;37.488;2022-09-01T04:26:10;11.50;99.90
22633;DHT22;11483;55.828;37.488;2022-09-01T04:28:44;11.50;99.90
22633;DHT22;11483;55.828;37.488;2022-09-01T04:31:14;11.40;99.90
22633;DHT22;11483;55.828;37.488;2022-09-01T04:33:45;11.40;99.90
22633;DHT22;11483;55.828;37.488;2022-09-01T04:36:20;11.30;99.90
22633;DHT22;11483;55.828;37.488;2022-09-01T04:38:52;11.20;99.90
22633;DHT22;11483;55.828;37.488;2022-09-01T04:41:20;11.20;99.90
22633;DHT22;11483;55.828;37.488;2022-09-01T04:43:48;11.20;99.90
22633;DHT22;11483;55.828;37.488;2022-09-01T04:46:17;11.30;99.90
22633;DHT22;11483;55.828;37.488;2022-09-01T04:48:44;11.50;99.90
22633;DHT22;11483;55.828;37.488;2022-09-01T04:51:11;11.50;99.90
22633;DHT22;11483;55.828;37.488;2022-09-01T04:53:40;11.60;99.90
22633;DHT22;11483;55.828;37.488;2022-09-01T04:56:08;11.70;99.90
22633;DHT22;11483;55.828;37.488;2022-09-01T04:58:35;11.80;99.90
22633;DHT22;11483;55.828;37.488;2022-09-01T05:01:01;11.90;99.90
22633;DHT22;11483;55.828;37.488;2022-09-01T05:03:38;12.00;99.90
22633;DHT22;11483;55.828;37.488;2022-09-01T05:06:04;12.00;99.90
22633;DHT22;11483;55.828;37.488;2022-09-01T05:08:30;12.00;99.90
22633;DHT22;11483;55.828;37.488;2022-09-01T05:11:03;12.00;99.90
22633;DHT22;11483;55.828;37.488;2022-09-01T05:13:32;12.10;99.90
22633;DHT22;11483;55.828;37.488;2022-09-01T05:16:04;12.10;99.90
22633;DHT22;11483;55.828;37.488;2022-09-01T05:18:32;12.20;99.90
22633;DHT22;11483;55.828;37.488;2022-09-01T05:21:04;12.10;99.90
22633;DHT22;11483;55.828;37.488;2022-09-01T05:23:34;12.20;99.90
22633;DHT22;11483;55.828;37.488;2022-09-01T05:26:01;12.30;99.90
22633;DHT22;11483;55.828;37.488;2022-09-01T05:28:28;12.40;99.90
22633;DHT22;11483;55.828;37.488;2022-09-01T05:30:54;12.40;99.90
22633;DHT22;11483;55.828;37.488;2022-09-01T05:33:20;12.40;99.90
22633;DHT22;11483;55.828;37.488;2022-09-01T05:35:57;12.60;99.90
22633;DHT22;11483;55.828;37.488;2022-09-01T05:38:25;12.50;99.90
22633;DHT22;11483;55.828;37.488;2022-09-01T05:40:59;12.60;99.90
22633;DHT22;11483;55.828;37.488;2022-09-01T05:43:30;12.70;99.90
22633;DHT22;11483;55.828;37.488;2022-09-01T05:45:57;12.80;99.90
22633;DHT22;11483;55.828;37.488;2022-09-01T05:48:23;12.90;99.90
22633;DHT22;11483;55.828;37.488;2022-09-01T05:50:50;13.00;99.90
22633;DHT22;11483;55.828;37.488;2022-09-01T05:53:17;13.10;99.90
22633;DHT22;11483;55.828;37.488;2022-09-01T05:55:45;13.10;99.90
22633;DHT22;11483;55.828;37.488;2022-09-01T05:58:13;13.10;99.90
22633;DHT22;11483;55.828;37.488;2022-09-01T06:00:43;13.20;99.90
22633;DHT22;11483;55.828;37.488;2022-09-01T06:03:14;13.20;99.90
22633;DHT22;11483;55.828;37.488;2022-09-01T06:05:42;13.20;99.90
22633;DHT22;11483;55.828;37.488;2022-09-01T06:08:13;13.20;99.90
22633;DHT22;11483;55.828;37.488;2022-09-01T06:10:40;13.20;99.90
22633;DHT22;11483;55.828;37.488;2022-09-01T06:13:07;13.10;99.90
22633;DHT22;11483;55.828;37.488;2022-09-01T06:15:35;13.20;99.90
22633;DHT22;11483;55.828;37.488;2022-09-01T06:18:08;13.40;99.90
22633;DHT22;11483;55.828;37.488;2022-09-01T06:20:44;13.50;99.90
22633;DHT22;11483;55.828;37.488;2022-09-01T06:23:11;13.30;99.90
22633;DHT22;11483;55.828;37.488;2022-09-01T06:25:44;13.10;99.90
22633;DHT22;11483;55.828;37.488;2022-09-01T06:28:18;12.90;99.90
22633;DHT22;11483;55.828;37.488;2022-09-01T06:30:45;12.80;99.90
22633;DHT22;11483;55.828;37.488;2022-09-01T06:33:14;12.80;99.90
22633;DHT22;11483;55.828;37.488;2022-09-01T06:35:41;12.60;99.90
22633;DHT22;11483;55.828;37.488;2022-09-01T06:38:10;12.60;99.90
22633;DHT22;11483;55.828;37.488;2022-09-01T06:40:37;12.50;99.90
22633;DHT22;11483;55.828;37.488;2022-09-01T06:43:05;12.40;99.90
22633;DHT22;11483;55.828;37.488;2022-09-01T06:45:40;12.20;99.90
22633;DHT22;11483;55.828;37.488;2022-09-01T06:48:08;11.90;99.90
22633;DHT22;11483;55.828;37.488;2022-09-01T06:50:34;12.20;99.90
22633;DHT22;11483;55.828;37.488;2022-09-01T06:53:00;12.10;99.90
22633;DHT22;11483;55.828;37.488;2022-09-01T06:55:29;11.90;99.90
22633;DHT22;11483;55.828;37.488;2022-09-01T06:57:58;11.80;99.90
22633;DHT22;11483;55.828;37.488;2022-09-01T07:00:25;11.90;99.90
22633;DHT22;11483;55.828;37.488;2022-09-01T07:02:57;12.10;99.90
22633;DHT22;11483;55.828;37.488;2022-09-01T07:05:24;12.30;99.90
22633;DHT22;11483;55.828;37.488;2022-09-01T07:07:52;12.60;99.90
22633;DHT22;11483;55.828;37.488;2022-09-01T07:10:21;12.90;99.90
22633;DHT22;11483;55.828;37.488;2022-09-01T07:12:49;12.90;99.90
22633;DHT22;11483;55.828;37.488;2022-09-01T07:15:15;12.80;99.90
22633;DHT22;11483;55.828;37.488;2022-09-01T07:17:49;12.90;99.90
22633;DHT22;11483;55.828;37.488;2022-09-01T07:20:17;12.90;99.90
22633;DHT22;11483;55.828;37.488;2022-09-01T07:22:49;13.00;99.90
22633;DHT22;11483;55.828;37.488;2022-09-01T07:25:16;13.00;99.90
22633;DHT22;11483;55.828;37.488;2022-09-01T07:27:43;13.10;99.90
22633;DHT22;11483;55.828;37.488;2022-09-01T07:30:20;13.10;99.90
22633;DHT22;11483;55.828;37.488;2022-09-01T07:32:47;13.30;99.90
22633;DHT22;11483;55.828;37.488;2022-09-01T07:35:17;13.20;99.90
22633;DHT22;11483;55.828;37.488;2022-09-01T07:37:45;13.40;99.90
22633;DHT22;11483;55.828;37.488;2022-09-01T07:40:16;13.30;99.90
22633;DHT22;11483;55.828;37.488;2022-09-01T07:42:45;13.40;99.90
22633;DHT22;11483;55.828;37.488;2022-09-01T07:45:14;13.50;99.90
22633;DHT22;11483;55.828;37.488;2022-09-01T07:50:08;13.60;99.90
22633;DHT22;11483;55.828;37.488;2022-09-01T07:52:38;13.50;99.90
22633;DHT22;11483;55.828;37.488;2022-09-01T07:55:16;13.60;99.90
22633;DHT22;11483;55.828;37.488;2022-09-01T07:57:44;13.70;99.90
22633;DHT22;11483;55.828;37.488;2022-09-01T08:00:13;13.70;99.90
22633;DHT22;11483;55.828;37.488;2022-09-01T08:02:40;13.60;99.90
22633;DHT22;11483;55.828;37.488;2022-09-01T08:05:11;13.50;99.90
22633;DHT22;11483;55.828;37.488;2022-09-01T08:07:38;13.40;99.90
22633;DHT22;11483;55.828;37.488;2022-09-01T08:10:06;13.40;99.90
22633;DHT22;11483;55.828;37.488;2022-09-01T08:12:33;13.40;99.90
22633;DHT22;11483;55.828;37.488;2022-09-01T08:15:07;13.30;99.90
22633;DHT22;11483;55.828;37.488;2022-09-01T08:17:35;13.20;99.90
22633;DHT22;11483;55.828;37.488;2022-09-01T08:20:02;13.00;99.90
22633;DHT22;11483;55.828;37.488;2022-09-01T08:22:28;13.10;99.90
22633;DHT22;11483;55.828;37.488;2022-09-01T08:24:54;13.00;99.90
22633;DHT22;11483;55.828;37.488;2022-09-01T08:27:20;13.00;99.90
22633;DHT22;11483;55.828;37.488;2022-09-01T08:29:45;13.00;99.90
22633;DHT22;11483;55.828;37.488;2022-09-01T08:32:11;13.20;99.90
22633;DHT22;11483;55.828;37.488;2022-09-01T08:34:37;13.30;99.90
22633;DHT22;11483;55.828;37.488;2022-09-01T08:37:04;13.50;99.90
22633;DHT22;11483;55.828;37.488;2022-09-01T08:39:31;13.80;99.90
22633;DHT22;11483;55.828;37.488;2022-09-01T08:42:16;14.10;99.90
22633;DHT22;11483;55.828;37.488;2022-09-01T08:47:32;14.60;99.90
22633;DHT22;11483;55.828;37.488;2022-09-01T08:49:59;14.70;99.90
22633;DHT22;11483;55.828;37.488;2022-09-01T08:52:41;14.70;99.90
22633;DHT22;11483;55.828;37.488;2022-09-01T08:55:30;14.60;99.90
22633;DHT22;11483;55.828;37.488;2022-09-01T08:57:59;14.10;99.90
22633;DHT22;11483;55.828;37.488;2022-09-01T09:00:28;13.90;99.90
22633;DHT22;11483;55.828;37.488;2022-09-01T09:08:25;13.30;99.90
22633;DHT22;11483;55.828;37.488;2022-09-01T09:10:58;13.50;99.90
22633;DHT22;11483;55.828;37.488;2022-09-01T09:16:27;14.30;99.90
22633;DHT22;11483;55.828;37.488;2022-09-01T09:19:06;14.50;99.90
22633;DHT22;11483;55.828;37.488;2022-09-01T09:21:40;14.50;99.90
22633;DHT22;11483;55.828;37.488;2022-09-01T09:24:12;14.30;99.90
22633;DHT22;11483;55.828;37.488;2022-09-01T09:26:40;14.10;99.90
22633;DHT22;11483;55.828;37.488;2022-09-01T09:29:06;14.00;99.90
22633;DHT22;11483;55.828;37.488;2022-09-01T09:31:35;14.20;99.90
22633;DHT22;11483;55.828;37.488;2022-09-01T09:36:52;14.20;99.90
22633;DHT22;11483;55.828;37.488;2022-09-01T09:39:18;14.20;99.90
22633;DHT22;11483;55.828;37.488;2022-09-01T09:42:06;14.30;99.90
22633;DHT22;11483;55.828;37.488;2022-09-01T09:44:42;14.20;99.90
22633;DHT22;11483;55.828;37.488;2022-09-01T09:47:10;13.90;99.90
22633;DHT22;11483;55.828;37.488;2022-09-01T09:50:16;13.80;99.90
22633;DHT22;11483;55.828;37.488;2022-09-01T09:52:43;13.60;99.90
22633;DHT22;11483;55.828;37.488;2022-09-01T09:55:27;13.50;99.90
22633;DHT22;11483;55.828;37.488;2022-09-01T09:58:01;13.60;99.90
22633;DHT22;11483;55.828;37.488;2022-09-01T10:00:34;13.70;99.90
22633;DHT22;11483;55.828;37.488;2022-09-01T10:03:06;14.30;99.90
22633;DHT22;11483;55.828;37.488;2022-09-01T10:05:46;14.90;99.90
22633;DHT22;11483;55.828;37.488;2022-09-01T10:08:40;15.50;99.90
22633;DHT22;11483;55.828;37.488;2022-09-01T10:11:30;16.10;99.90
22633;DHT22;11483;55.828;37.488;2022-09-01T10:13:57;16.60;99.90
22633;DHT22;11483;55.828;37.488;2022-09-01T10:16:29;16.60;99.90
22633;DHT22;11483;55.828;37.488;2022-09-01T10:18:58;16.10;99.90
22633;DHT22;11483;55.828;37.488;2022-09-01T10:21:37;15.60;99.90
22633;DHT22;11483;55.828;37.488;2022-09-01T10:24:31;15.10;99.90
22633;DHT22;11483;55.828;37.488;2022-09-01T10:27:07;14.80;99.90
22633;DHT22;11483;55.828;37.488;2022-09-01T10:32:28;14.20;99.90
22633;DHT22;11483;55.828;37.488;2022-09-01T10:34:56;14.00;99.90
22633;DHT22;11483;55.828;37.488;2022-09-01T10:37:22;14.00;99.90
22633;DHT22;11483;55.828;37.488;2022-09-01T10:40:15;14.00;99.90
22633;DHT22;11483;55.828;37.488;2022-09-01T10:42:44;13.80;99.90
22633;DHT22;11483;55.828;37.488;2022-09-01T10:45:33;14.20;99.90
22633;DHT22;11483;55.828;37.488;2022-09-01T10:48:27;14.20;99.90
22633;DHT22;11483;55.828;37.488;2022-09-01T10:53:51;14.60;99.90
22633;DHT22;11483;55.828;37.488;2022-09-01T10:56:25;15.10;99.90
22633;DHT22;11483;55.828;37.488;2022-09-01T11:04:17;15.20;99.90
22633;DHT22;11483;55.828;37.488;2022-09-01T11:09:33;14.40;99.90
22633;DHT22;11483;55.828;37.488;2022-09-01T11:23:27;15.00;99.90
22633;DHT22;11483;55.828;37.488;2022-09-01T11:28:48;15.90;99.90
22633;DHT22;11483;55.828;37.488;2022-09-01T11:34:01;16.00;99.90
22633;DHT22;11483;55.828;37.488;2022-09-01T11:47:05;15.10;99.90
22633;DHT22;11483;55.828;37.488;2022-09-01T11:49:38;14.80;99.90
22633;DHT22;11483;55.828;37.488;2022-09-01T11:52:05;14.80;99.90
22633;DHT22;11483;55.828;37.488;2022-09-01T11:54:41;14.80;99.90
22633;DHT22;11483;55.828;37.488;2022-09-01T11:57:19;15.20;99.90
22633;DHT22;11483;55.828;37.488;2022-09-01T11:59:45;15.90;99.90
22633;DHT22;11483;55.828;37.488;2022-09-01T12:02:23;16.50;99.90
22633;DHT22;11483;55.828;37.488;2022-09-01T12:04:50;17.90;99.90
22633;DHT22;11483;55.828;37.488;2022-09-01T12:10:03;20.20;99.90
22633;DHT22;11483;55.828;37.488;2022-09-01T12:12:38;20.00;98.40
22633;DHT22;11483;55.828;37.488;2022-09-01T12:15:16;20.40;97.40
22633;DHT22;11483;55.828;37.488;2022-09-01T12:17:42;21.30;96.20
22633;DHT22;11483;55.828;37.488;2022-09-01T12:20:18;20.90;94.60
22633;DHT22;11483;55.828;37.488;2022-09-01T12:22:43;20.60;93.10
22633;DHT22;11483;55.828;37.488;2022-09-01T12:25:17;19.90;94.00
22633;DHT22;11483;55.828;37.488;2022-09-01T12:27:44;19.80;93.60
22633;DHT22;11483;55.828;37.488;2022-09-01T12:30:10;19.20;93.90
22633;DHT22;11483;55.828;37.488;2022-09-01T12:32:36;19.00;93.40
22633;DHT22;11483;55.828;37.488;2022-09-01T12:35:03;18.60;93.80
22633;DHT22;11483;55.828;37.488;2022-09-01T12:37:29;17.60;94.30
22633;DHT22;11483;55.828;37.488;2022-09-01T12:39:56;17.00;95.50
22633;DHT22;11483;55.828;37.488;2022-09-01T12:45:07;16.20;97.10
22633;DHT22;11483;55.828;37.488;2022-09-01T12:53:12;15.40;99.10
22633;DHT22;11483;55.828;37.488;2022-09-01T12:55:31;15.30;99.60
22633;DHT22;11483;55.828;37.488;2022-09-01T12:57:58;15.20;99.90
22633;DHT22;11483;55.828;37.488;2022-09-01T13:00:25;15.10;99.90
22633;DHT22;11483;55.828;37.488;2022-09-01T13:05:23;15.30;99.90
22633;DHT22;11483;55.828;37.488;2022-09-01T13:07:51;15.80;99.90
22633;DHT22;11483;55.828;37.488;2022-09-01T13:10:17;16.90;99.90
22633;DHT22;11483;55.828;37.488;2022-09-01T13:15:09;17.50;97.00
22633;DHT22;11483;55.828;37.488;2022-09-01T13:17:35;17.60;96.60
22633;DHT22;11483;55.828;37.488;2022-09-01T13:20:04;18.60;96.10
22633;DHT22;11483;55.828;37.488;2022-09-01T13:22:30;19.40;95.40
22633;DHT22;11483;55.828;37.488;2022-09-01T13:24:56;18.90;94.80
22633;DHT22;11483;55.828;37.488;2022-09-01T13:27:21;19.00;95.00
22633;DHT22;11483;55.828;37.488;2022-09-01T13:29:47;18.40;95.10
22633;DHT22;11483;55.828;37.488;2022-09-01T13:32:14;18.00;94.80
22633;DHT22;11483;55.828;37.488;2022-09-01T13:34:40;17.60;95.10
22633;DHT22;11483;55.828;37.488;2022-09-01T13:37:05;17.30;95.70
22633;DHT22;11483;55.828;37.488;2022-09-01T13:39:31;17.00;96.30
22633;DHT22;11483;55.828;37.488;2022-09-01T13:41:57;16.70;96.70
22633;DHT22;11483;55.828;37.488;2022-09-01T13:44:23;16.60;96.90
22633;DHT22;11483;55.828;37.488;2022-09-01T13:46:48;16.30;97.60
22633;DHT22;11483;55.828;37.488;2022-09-01T13:49:14;16.20;97.90
22633;DHT22;11483;55.828;37.488;2022-09-01T13:51:40;16.30;98.50
22633;DHT22;11483;55.828;37.488;2022-09-01T13:54:06;17.40;97.90
22633;DHT22;11483;55.828;37.488;2022-09-01T13:56:31;17.70;96.90
22633;DHT22;11483;55.828;37.488;2022-09-01T13:58:57;17.10;97.00
22633;DHT22;11483;55.828;37.488;2022-09-01T14:01:23;16.40;98.10
22633;DHT22;11483;55.828;37.488;2022-09-01T14:03:49;16.00;98.50
22633;DHT22;11483;55.828;37.488;2022-09-01T14:06:15;15.70;99.90
22633;DHT22;11483;55.828;37.488;2022-09-01T14:08:40;15.50;99.90
22633;DHT22;11483;55.828;37.488;2022-09-01T14:11:06;15.20;99.90
22633;DHT22;11483;55.828;37.488;2022-09-01T14:13:33;14.90;99.90
22633;DHT22;11483;55.828;37.488;2022-09-01T14:15:59;14.70;99.90
22633;DHT22;11483;55.828;37.488;2022-09-01T14:18:25;14.40;99.90
22633;DHT22;11483;55.828;37.488;2022-09-01T14:20:57;14.20;99.90
22633;DHT22;11483;55.828;37.488;2022-09-01T14:23:25;14.00;99.90
22633;DHT22;11483;55.828;37.488;2022-09-01T14:25:51;13.50;99.90
22633;DHT22;11483;55.828;37.488;2022-09-01T14:28:18;12.90;99.90
22633;DHT22;11483;55.828;37.488;2022-09-01T14:30:44;12.40;99.90
22633;DHT22;11483;55.828;37.488;2022-09-01T14:33:10;13.10;99.90
22633;DHT22;11483;55.828;37.488;2022-09-01T14:35:37;14.40;99.90
22633;DHT22;11483;55.828;37.488;2022-09-01T14:38:03;15.80;99.90
22633;DHT22;11483;55.828;37.488;2022-09-01T14:40:32;17.10;99.90
22633;DHT22;11483;55.828;37.488;2022-09-01T14:42:58;18.00;99.90
22633;DHT22;11483;55.828;37.488;2022-09-01T14:45:25;18.00;99.90
22633;DHT22;11483;55.828;37.488;2022-09-01T14:47:53;17.30;99.90
22633;DHT22;11483;55.828;37.488;2022-09-01T14:50:19;16.50;99.90
22633;DHT22;11483;55.828;37.488;2022-09-01T14:52:46;15.90;99.90
22633;DHT22;11483;55.828;37.488;2022-09-01T14:55:12;15.60;99.90
22633;DHT22;11483;55.828;37.488;2022-09-01T14:57:38;16.00;99.90
22633;DHT22;11483;55.828;37.488;2022-09-01T15:00:05;16.30;99.90
22633;DHT22;11483;55.828;37.488;2022-09-01T15:02:34;16.30;99.90
22633;DHT22;11483;55.828;37.488;2022-09-01T15:05:15;16.70;99.90
22633;DHT22;11483;55.828;37.488;2022-09-01T15:07:41;17.30;99.90
22633;DHT22;11483;55.828;37.488;2022-09-01T15:10:08;17.90;99.90
22633;DHT22;11483;55.828;37.488;2022-09-01T15:12:34;18.20;99.90
22633;DHT22;11483;55.828;37.488;2022-09-01T15:15:01;18.20;99.90
22633;DHT22;11483;55.828;37.488;2022-09-01T15:17:27;17.50;99.90
22633;DHT22;11483;55.828;37.488;2022-09-01T15:19:54;16.80;99.90
22633;DHT22;11483;55.828;37.488;2022-09-01T15:22:20;16.20;99.90
22633;DHT22;11483;55.828;37.488;2022-09-01T15:24:45;15.50;99.90
22633;DHT22;11483;55.828;37.488;2022-09-01T15:27:11;14.90;99.90
22633;DHT22;11483;55.828;37.488;2022-09-01T15:29:37;14.50;99.90
22633;DHT22;11483;55.828;37.488;2022-09-01T15:32:10;14.00;99.90
22633;DHT22;11483;55.828;37.488;2022-09-01T15:34:36;14.20;99.90
22633;DHT22;11483;55.828;37.488;2022-09-01T15:37:02;14.70;99.90
22633;DHT22;11483;55.828;37.488;2022-09-01T15:39:28;15.20;99.90
22633;DHT22;11483;55.828;37.488;2022-09-01T15:41:53;15.90;99.90
22633;DHT22;11483;55.828;37.488;2022-09-01T15:44:20;16.30;99.90
22633;DHT22;11483;55.828;37.488;2022-09-01T15:46:46;16.50;99.90
22633;DHT22;11483;55.828;37.488;2022-09-01T15:49:12;16.60;99.90
22633;DHT22;11483;55.828;37.488;2022-09-01T15:51:40;16.80;99.90
22633;DHT22;11483;55.828;37.488;2022-09-01T15:54:10;16.80;99.90
22633;DHT22;11483;55.828;37.488;2022-09-01T15:56:36;16.50;99.90
22633;DHT22;11483;55.828;37.488;2022-09-01T15:59:02;16.00;99.90
22633;DHT22;11483;55.828;37.488;2022-09-01T16:01:30;15.40;99.90
22633;DHT22;11483;55.828;37.488;2022-09-01T16:03:56;14.90;99.90
22633;DHT22;11483;55.828;37.488;2022-09-01T16:06:22;14.30;99.90
22633;DHT22;11483;55.828;37.488;2022-09-01T16:08:48;13.90;99.90
22633;DHT22;11483;55.828;37.488;2022-09-01T16:11:14;13.70;99.90
22633;DHT22;11483;55.828;37.488;2022-09-01T16:13:41;13.40;99.90
22633;DHT22;11483;55.828;37.488;2022-09-01T16:18:40;12.90;99.90
22633;DHT22;11483;55.828;37.488;2022-09-01T16:21:12;12.70;99.90
22633;DHT22;11483;55.828;37.488;2022-09-01T16:23:43;12.50;99.90
22633;DHT22;11483;55.828;37.488;2022-09-01T16:26:10;12.30;99.90
22633;DHT22;11483;55.828;37.488;2022-09-01T16:28:39;12.20;99.90
22633;DHT22;11483;55.828;37.488;2022-09-01T16:31:13;12.10;99.90
22633;DHT22;11483;55.828;37.488;2022-09-01T16:33:47;12.00;99.90
22633;DHT22;11483;55.828;37.488;2022-09-01T16:38:46;11.80;99.90
22633;DHT22;11483;55.828;37.488;2022-09-01T16:41:29;11.80;99.90
22633;DHT22;11483;55.828;37.488;2022-09-01T16:44:08;11.80;99.90
22633;DHT22;11483;55.828;37.488;2022-09-01T16:46:54;11.70;99.90
22633;DHT22;11483;55.828;37.488;2022-09-01T16:52:01;11.60;99.90
22633;DHT22;11483;55.828;37.488;2022-09-01T16:57:29;11.50;99.90